Time;durP1;ratioP1;P1;durP2;ratioP2;P2;SDS_P1;SDS_P2;PMS_P1;PMS_P2;Temp;Humidity;BMP_temperature;BMP_pressure;BME280_temperature;BME280_humidity;BME280_pressure;Samples;Min_cycle;Max_cycle;Signal;HPM_P1;HPM_P2
2022/03/01 00:02:07;;;;;;;11.47;7.20;;;1.00;92.20;;;;;;5087296;28;20183;-73
2022/03/01 00:04:33;;;;;;;10.20;6.27;;;1.00;91.90;;;;;;5084916;28;20296;-75
2022/03/01 00:06:58;;;;;;;9.93;6.53;;;1.00;91.60;;;;;;5084871;28;20210;-75
2022/03/01 00:09:24;;;;;;;8.67;6.63;;;0.90;92.10;;;;;;5082468;28;20186;-74
2022/03/01 00:11:49;;;;;;;12.93;6.77;;;1.00;92.00;;;;;;5085496;28;20179;-73
2022/03/01 00:14:15;;;;;;;8.83;7.30;;;1.00;91.70;;;;;;5084838;28;20188;-72
2022/03/01 00:16:40;;;;;;;10.83;6.43;;;0.90;91.90;;;;;;5086561;28;20622;-75
2022/03/01 00:19:06;;;;;;;8.00;6.50;;;0.90;92.30;;;;;;5084836;28;20713;-75
2022/03/01 00:21:31;;;;;;;7.77;6.57;;;0.80;92.40;;;;;;5086457;28;20216;-79
2022/03/01 00:23:57;;;;;;;11.20;7.20;;;0.80;92.30;;;;;;5086697;28;20827;-76
2022/03/01 00:26:23;;;;;;;13.03;7.13;;;0.80;92.30;;;;;;5083830;28;20553;-74
2022/03/01 00:28:48;;;;;;;10.93;6.77;;;0.80;92.50;;;;;;5084747;28;20183;-73
2022/03/01 00:31:14;;;;;;;12.77;6.93;;;0.70;92.70;;;;;;5082839;28;20643;-74
2022/03/01 00:33:40;;;;;;;10.53;6.77;;;0.70;92.80;;;;;;5081589;28;20184;-81
2022/03/01 00:36:06;;;;;;;11.13;6.57;;;0.70;93.20;;;;;;5086534;28;20282;-81
2022/03/01 00:38:31;;;;;;;11.77;7.67;;;0.80;93.50;;;;;;5086061;28;20223;-84
2022/03/01 00:40:57;;;;;;;10.17;6.80;;;0.70;93.10;;;;;;5083005;28;20676;-74
2022/03/01 00:43:23;;;;;;;9.53;6.27;;;0.60;93.00;;;;;;5097440;28;20207;-77
2022/03/01 00:45:51;;;;;;;8.87;6.43;;;0.60;93.20;;;;;;5084439;28;20206;-77
2022/03/01 00:48:17;;;;;;;8.93;6.67;;;0.60;93.40;;;;;;5097228;28;20216;-75
2022/03/01 00:50:43;;;;;;;7.67;6.33;;;0.60;93.20;;;;;;5096121;28;20183;-77
2022/03/01 00:53:08;;;;;;;10.80;6.03;;;0.60;93.70;;;;;;5097890;28;20206;-77
2022/03/01 00:55:34;;;;;;;10.90;6.60;;;0.60;93.30;;;;;;5103164;28;20220;-77
2022/03/01 00:57:59;;;;;;;12.83;8.13;;;0.50;93.60;;;;;;5098201;28;20201;-76
2022/03/01 01:00:25;;;;;;;9.20;7.27;;;0.50;93.90;;;;;;5096174;28;20253;-79
2022/03/01 01:02:50;;;;;;;8.97;6.40;;;0.50;94.30;;;;;;5097408;28;20222;-78
2022/03/01 01:05:16;;;;;;;12.27;7.20;;;0.50;94.20;;;;;;5088565;28;20207;-77
2022/03/01 01:07:42;;;;;;;9.47;7.20;;;0.40;94.20;;;;;;5089028;28;20203;-76
2022/03/01 01:10:08;;;;;;;7.87;5.87;;;0.50;94.20;;;;;;5096033;28;20918;-85
2022/03/01 01:12:34;;;;;;;9.97;7.43;;;0.50;94.40;;;;;;5088757;28;20192;-75
2022/03/01 01:15:00;;;;;;;7.77;6.67;;;0.40;94.60;;;;;;5097087;28;20205;-72
2022/03/01 01:17:26;;;;;;;11.60;7.13;;;0.30;94.90;;;;;;5093244;28;20193;-73
2022/03/01 01:19:51;;;;;;;9.90;6.30;;;0.30;94.80;;;;;;5086755;28;20229;-73
2022/03/01 01:25:02;;;;;;;9.77;6.77;;;0.30;95.10;;;;;;5089028;28;20734;-72
2022/03/01 01:27:28;;;;;;;10.47;6.80;;;0.20;95.20;;;;;;5096343;28;20255;-71
2022/03/01 01:29:53;;;;;;;10.40;7.00;;;0.20;95.50;;;;;;5085614;28;20213;-70
2022/03/01 01:32:19;;;;;;;8.50;5.73;;;0.20;95.70;;;;;;5087218;28;20193;-69
2022/03/01 01:34:44;;;;;;;14.63;7.43;;;0.20;95.70;;;;;;5085640;28;20196;-70
2022/03/01 01:37:10;;;;;;;8.23;7.00;;;0.20;95.90;;;;;;5089095;28;20653;-72
2022/03/01 01:39:35;;;;;;;6.73;6.13;;;0.10;96.10;;;;;;5089848;28;20195;-72
2022/03/01 01:42:01;;;;;;;10.73;7.33;;;0.10;96.10;;;;;;5086885;28;20192;-72
2022/03/01 01:44:29;;;;;;;8.47;6.20;;;0.10;96.00;;;;;;5086936;28;20207;-69
2022/03/01 01:46:55;;;;;;;9.97;7.13;;;0.10;96.50;;;;;;5088141;28;20629;-70
2022/03/01 01:49:20;;;;;;;12.57;7.20;;;0.10;96.60;;;;;;5084375;28;20202;-74
2022/03/01 01:51:46;;;;;;;11.20;7.23;;;0.10;96.60;;;;;;5078449;28;20189;-73
2022/03/01 01:54:13;;;;;;;9.97;6.63;;;0.10;96.60;;;;;;5078547;28;20264;-73
2022/03/01 01:56:38;;;;;;;9.53;7.67;;;0.10;96.40;;;;;;5087084;28;20204;-73
2022/03/01 01:59:04;;;;;;;11.77;7.60;;;0.10;96.50;;;;;;5082607;28;20236;-75
2022/03/01 02:01:29;;;;;;;9.87;6.57;;;0.00;97.00;;;;;;5087266;28;20215;-73
2022/03/01 02:03:55;;;;;;;10.03;7.60;;;0.00;97.20;;;;;;5100449;28;20624;-71
2022/03/01 02:06:20;;;;;;;9.67;7.43;;;0.00;97.10;;;;;;5099447;28;20743;-73
2022/03/01 02:08:46;;;;;;;12.30;6.63;;;0.00;97.30;;;;;;5088679;28;20231;-71
2022/03/01 02:11:11;;;;;;;11.87;8.00;;;0.00;97.30;;;;;;5099406;28;20633;-71
2022/03/01 02:13:37;;;;;;;11.30;6.97;;;0.00;97.50;;;;;;5096917;28;20195;-75
2022/03/01 02:16:03;;;;;;;13.13;6.77;;;-0.10;97.40;;;;;;5087382;28;20269;-70
2022/03/01 02:18:28;;;;;;;15.40;7.10;;;-0.10;97.40;;;;;;5087843;28;20199;-71
2022/03/01 02:20:54;;;;;;;9.33;6.57;;;0.00;97.60;;;;;;5084746;28;20206;-71
2022/03/01 02:23:20;;;;;;;9.97;7.07;;;0.00;97.70;;;;;;5088037;28;20600;-71
2022/03/01 02:25:45;;;;;;;9.53;6.17;;;-0.10;98.00;;;;;;5088386;28;20573;-73
2022/03/01 02:28:11;;;;;;;14.80;7.50;;;0.00;98.20;;;;;;5083996;28;20215;-76
2022/03/01 02:30:36;;;;;;;10.70;7.67;;;-0.10;98.20;;;;;;5083405;28;21641;-74
2022/03/01 02:33:02;;;;;;;10.77;6.87;;;0.00;98.10;;;;;;5083851;28;20191;-74
2022/03/01 02:35:28;;;;;;;12.33;7.57;;;0.10;97.90;;;;;;5084889;28;20275;-70
2022/03/01 02:37:54;;;;;;;10.67;8.00;;;0.00;98.10;;;;;;5084805;28;20649;-70
2022/03/01 02:40:19;;;;;;;9.63;6.70;;;-0.10;98.30;;;;;;5083586;28;20269;-70
2022/03/01 02:42:47;;;;;;;10.17;6.63;;;0.00;98.30;;;;;;5085064;28;20199;-71
2022/03/01 02:45:16;;;;;;;10.80;6.40;;;0.00;97.90;;;;;;5086995;28;20196;-69
2022/03/01 02:47:42;;;;;;;8.87;6.93;;;0.00;98.20;;;;;;5085993;28;20211;-72
2022/03/01 02:50:09;;;;;;;12.27;7.17;;;-0.10;98.10;;;;;;5084486;28;20201;-73
2022/03/01 02:52:35;;;;;;;12.60;7.13;;;-0.10;98.20;;;;;;5087311;28;20646;-70
2022/03/01 02:55:03;;;;;;;9.43;6.63;;;-0.10;98.10;;;;;;5085874;28;20290;-71
2022/03/01 02:57:28;;;;;;;13.00;8.17;;;-0.10;98.20;;;;;;5085084;28;20199;-71
2022/03/01 02:59:54;;;;;;;9.43;7.03;;;-0.10;97.90;;;;;;5082989;28;20648;-74
2022/03/01 03:02:20;;;;;;;10.07;7.37;;;-0.10;97.80;;;;;;5085630;28;20257;-76
2022/03/01 03:04:46;;;;;;;9.80;6.20;;;0.00;97.50;;;;;;5085646;28;20202;-73
2022/03/01 03:07:12;;;;;;;9.20;6.00;;;-0.10;97.70;;;;;;5085516;28;20215;-71
2022/03/01 03:09:38;;;;;;;10.93;7.23;;;-0.20;97.90;;;;;;5094222;28;20668;-79
2022/03/01 03:12:05;;;;;;;11.70;6.97;;;-0.20;97.90;;;;;;5095365;28;20200;-72
2022/03/01 03:14:30;;;;;;;13.83;7.27;;;-0.20;97.90;;;;;;5091555;28;20218;-74
2022/03/01 03:16:56;;;;;;;10.13;7.63;;;-0.20;98.50;;;;;;5094821;28;20237;-67
2022/03/01 03:19:21;;;;;;;11.10;7.23;;;-0.10;98.30;;;;;;5090691;28;20704;-69
2022/03/01 03:21:47;;;;;;;12.63;7.13;;;-0.20;98.20;;;;;;5090170;28;20222;-69
2022/03/01 03:24:13;;;;;;;10.70;7.00;;;-0.20;97.80;;;;;;5094218;28;20203;-69
2022/03/01 03:26:39;;;;;;;11.50;7.67;;;-0.20;97.80;;;;;;5094526;28;20208;-72
2022/03/01 03:29:09;;;;;;;14.60;7.03;;;-0.20;97.90;;;;;;5094623;28;20228;-73
2022/03/01 03:31:36;;;;;;;9.77;6.67;;;-0.30;98.20;;;;;;5085049;28;20960;-72
2022/03/01 03:34:02;;;;;;;7.40;5.73;;;-0.30;98.50;;;;;;5087986;28;20202;-69
2022/03/01 03:36:28;;;;;;;11.83;6.90;;;-0.30;98.50;;;;;;5091643;28;20186;-80
2022/03/01 03:38:53;;;;;;;13.47;7.43;;;-0.30;98.50;;;;;;5092999;28;20206;-80
2022/03/01 03:41:19;;;;;;;16.17;8.97;;;-0.40;98.50;;;;;;5096732;28;20222;-80
2022/03/01 03:43:44;;;;;;;9.40;7.60;;;-0.30;98.70;;;;;;5088502;28;20199;-78
2022/03/01 03:46:10;;;;;;;9.33;7.03;;;-0.40;98.30;;;;;;5093377;28;20201;-68
2022/03/01 03:48:35;;;;;;;12.30;6.97;;;-0.40;98.60;;;;;;5082795;28;20210;-71
2022/03/01 03:51:01;;;;;;;10.93;6.93;;;-0.40;98.70;;;;;;5093640;28;20216;-74
2022/03/01 03:53:26;;;;;;;12.17;7.37;;;-0.40;98.90;;;;;;5086373;28;20213;-86
2022/03/01 03:55:51;;;;;;;11.50;7.43;;;-0.40;98.90;;;;;;5088128;28;20440;-85
2022/03/01 03:58:17;;;;;;;13.00;6.53;;;-0.40;98.70;;;;;;5083230;28;20580;-75
2022/03/01 04:00:42;;;;;;;11.47;7.70;;;-0.30;98.50;;;;;;5087000;28;20242;-75
2022/03/01 04:03:08;;;;;;;10.90;6.90;;;-0.40;98.80;;;;;;5087415;28;20203;-77
2022/03/01 04:05:34;;;;;;;10.83;7.07;;;-0.40;98.90;;;;;;5086456;28;20605;-74
2022/03/01 04:08:01;;;;;;;11.80;7.07;;;-0.50;99.00;;;;;;5082847;28;20217;-73
2022/03/01 04:10:27;;;;;;;13.53;7.80;;;-0.50;99.40;;;;;;5085964;28;20195;-75
2022/03/01 04:12:52;;;;;;;13.23;8.90;;;-0.50;99.20;;;;;;5082810;28;20197;-75
2022/03/01 04:15:18;;;;;;;9.90;7.27;;;-0.30;99.00;;;;;;5086353;28;20243;-74
2022/03/01 04:17:44;;;;;;;10.83;6.63;;;-0.30;99.50;;;;;;5084017;28;20208;-74
2022/03/01 04:20:10;;;;;;;12.17;7.43;;;-0.30;99.20;;;;;;5096407;28;20706;-74
2022/03/01 04:22:36;;;;;;;11.67;7.63;;;-0.20;98.80;;;;;;5093237;28;20229;-67
2022/03/01 04:25:04;;;;;;;13.70;8.00;;;-0.30;98.70;;;;;;5092702;28;20256;-74
2022/03/01 04:27:30;;;;;;;10.47;6.90;;;-0.40;99.20;;;;;;5094346;28;20225;-75
2022/03/01 04:29:56;;;;;;;13.20;7.97;;;-0.30;99.50;;;;;;5104711;28;20403;-76
2022/03/01 04:32:21;;;;;;;10.80;6.57;;;-0.30;99.00;;;;;;5095423;28;20273;-75
2022/03/01 04:34:47;;;;;;;9.87;6.73;;;-0.40;99.40;;;;;;5100954;28;20306;-73
2022/03/01 04:37:12;;;;;;;13.67;7.87;;;-0.30;99.20;;;;;;5092733;28;20232;-81
2022/03/01 04:39:38;;;;;;;10.03;7.70;;;-0.30;99.30;;;;;;5094310;28;20308;-79
2022/03/01 04:42:04;;;;;;;10.60;7.40;;;-0.40;98.90;;;;;;5103275;28;20496;-82
2022/03/01 04:44:31;;;;;;;8.93;6.97;;;-0.50;99.30;;;;;;5099982;28;20195;-85
2022/03/01 04:46:56;;;;;;;14.47;8.47;;;-0.50;98.60;;;;;;5098843;28;20291;-84
2022/03/01 04:49:22;;;;;;;9.73;7.40;;;-0.60;99.20;;;;;;5089956;28;20213;-78
2022/03/01 04:51:47;;;;;;;11.63;7.30;;;-0.50;99.60;;;;;;5086931;28;20183;-82
2022/03/01 04:54:13;;;;;;;12.63;7.17;;;-0.60;98.90;;;;;;5096473;28;20555;-79
2022/03/01 04:56:39;;;;;;;14.07;7.10;;;-0.50;99.10;;;;;;5100211;28;20202;-74
2022/03/01 04:59:04;;;;;;;11.47;7.10;;;-0.50;98.70;;;;;;5087371;28;20734;-71
2022/03/01 05:01:30;;;;;;;11.07;7.30;;;-0.50;98.50;;;;;;5088226;28;20274;-80
2022/03/01 05:03:56;;;;;;;10.63;7.60;;;-0.60;98.80;;;;;;5086115;28;20205;-69
2022/03/01 05:06:21;;;;;;;12.50;7.83;;;-0.60;99.10;;;;;;5087665;28;20982;-77
2022/03/01 05:08:46;;;;;;;12.97;8.30;;;-0.60;98.90;;;;;;5094639;28;20319;-75
2022/03/01 05:11:12;;;;;;;11.47;7.57;;;-0.60;98.80;;;;;;5100331;28;20182;-72
2022/03/01 05:13:37;;;;;;;9.10;6.40;;;-0.60;98.90;;;;;;5093670;28;20271;-80
2022/03/01 05:16:03;;;;;;;10.57;7.13;;;-0.60;98.80;;;;;;5098760;28;20180;-74
2022/03/01 05:18:28;;;;;;;8.90;6.23;;;-0.60;98.80;;;;;;5087077;28;20203;-72
2022/03/01 05:20:54;;;;;;;12.43;7.80;;;-0.60;98.40;;;;;;5092468;28;20189;-76
2022/03/01 05:23:20;;;;;;;10.63;7.47;;;-0.60;98.90;;;;;;5086887;28;20202;-84
2022/03/01 05:25:45;;;;;;;13.73;7.00;;;-0.60;99.00;;;;;;5092181;28;20213;-72
2022/03/01 05:28:11;;;;;;;12.13;7.63;;;-0.70;99.00;;;;;;5086854;28;20216;-72
2022/03/01 05:30:36;;;;;;;14.30;7.23;;;-0.70;99.30;;;;;;5102553;28;20221;-72
2022/03/01 05:33:02;;;;;;;12.30;6.97;;;-0.70;99.20;;;;;;5101819;28;20205;-66
2022/03/01 05:35:29;;;;;;;11.37;7.07;;;-0.70;99.00;;;;;;5093222;28;20189;-72
2022/03/01 05:37:57;;;;;;;9.53;6.47;;;-0.70;99.20;;;;;;5099190;28;20200;-67
2022/03/01 05:40:28;;;;;;;9.93;7.43;;;-0.70;99.20;;;;;;5104579;28;20244;-67
2022/03/01 05:42:54;;;;;;;9.03;5.57;;;-0.80;99.50;;;;;;5075272;28;20569;-67
2022/03/01 05:45:20;;;;;;;16.93;8.47;;;-0.80;99.30;;;;;;5094911;28;20982;-72
2022/03/01 05:47:46;;;;;;;13.50;7.73;;;-0.70;99.40;;;;;;5088146;28;20699;-78
2022/03/01 05:50:13;;;;;;;10.67;7.20;;;-0.70;99.30;;;;;;5086522;28;20221;-70
2022/03/01 05:52:39;;;;;;;9.30;6.50;;;-0.80;99.40;;;;;;5086014;28;20210;-85
2022/03/01 05:55:06;;;;;;;11.93;7.27;;;-0.70;99.20;;;;;;5086790;28;20200;-71
2022/03/01 05:57:32;;;;;;;12.60;7.20;;;-0.70;99.20;;;;;;5086041;28;20542;-81
2022/03/01 05:59:58;;;;;;;11.10;7.57;;;-0.80;99.10;;;;;;5089159;28;20186;-81
2022/03/01 06:02:24;;;;;;;11.50;6.93;;;-0.80;99.30;;;;;;5085020;28;20198;-82
2022/03/01 06:04:49;;;;;;;11.07;7.03;;;-0.80;99.60;;;;;;5090239;28;20216;-79
2022/03/01 06:07:15;;;;;;;11.03;7.83;;;-0.80;99.50;;;;;;5086988;28;20217;-79
2022/03/01 06:09:41;;;;;;;10.23;6.60;;;-0.80;99.50;;;;;;5087796;28;20175;-75
2022/03/01 06:12:07;;;;;;;12.73;8.10;;;-0.80;99.60;;;;;;5085588;28;20198;-80
2022/03/01 06:14:32;;;;;;;12.43;7.90;;;-0.80;99.50;;;;;;5089531;28;20534;-76
2022/03/01 06:16:58;;;;;;;15.80;7.87;;;-0.80;99.30;;;;;;5085756;28;20190;-87
2022/03/01 06:19:23;;;;;;;11.37;7.63;;;-0.80;99.70;;;;;;5085103;28;20250;-76
2022/03/01 06:21:49;;;;;;;14.93;8.07;;;-0.80;99.80;;;;;;5085441;28;20203;-80
2022/03/01 06:24:14;;;;;;;11.57;8.00;;;-0.80;99.90;;;;;;5094382;28;20674;-73
2022/03/01 06:26:40;;;;;;;16.70;8.37;;;-0.70;99.50;;;;;;5087279;28;20782;-84
2022/03/01 06:29:06;;;;;;;11.13;7.63;;;-0.70;99.20;;;;;;5085228;28;20272;-70
2022/03/01 06:31:31;;;;;;;8.57;7.23;;;-0.70;99.80;;;;;;5085651;28;20552;-75
2022/03/01 06:33:57;;;;;;;13.33;7.07;;;-0.70;99.60;;;;;;5083872;28;20314;-72
2022/03/01 06:36:24;;;;;;;11.77;7.20;;;-0.70;99.90;;;;;;5084276;28;20191;-73
2022/03/01 06:38:50;;;;;;;12.43;7.77;;;-0.70;99.90;;;;;;5085942;28;20200;-73
2022/03/01 06:41:15;;;;;;;17.53;7.87;;;-0.60;99.90;;;;;;5082961;28;20202;-73
2022/03/01 06:43:41;;;;;;;15.77;7.87;;;-0.60;99.90;;;;;;5085879;28;20645;-71
2022/03/01 06:46:07;;;;;;;12.43;7.30;;;-0.60;99.70;;;;;;5086160;28;20195;-70
2022/03/01 06:48:33;;;;;;;11.33;7.53;;;-0.60;99.80;;;;;;5088395;28;20749;-74
2022/03/01 06:50:58;;;;;;;10.93;8.03;;;-0.60;99.40;;;;;;5083509;28;20214;-73
2022/03/01 06:53:24;;;;;;;12.13;7.80;;;-0.60;99.40;;;;;;5085428;28;20276;-74
2022/03/01 06:55:49;;;;;;;12.17;8.47;;;-0.50;99.50;;;;;;5086208;28;20230;-73
2022/03/01 06:58:15;;;;;;;11.60;7.33;;;-0.40;99.10;;;;;;5085542;28;20187;-71
2022/03/01 07:00:40;;;;;;;13.47;7.00;;;-0.40;98.90;;;;;;5087872;28;20202;-72
2022/03/01 07:03:06;;;;;;;9.73;7.50;;;-0.40;98.90;;;;;;5085976;28;20201;-72
2022/03/01 07:05:32;;;;;;;14.83;8.03;;;-0.40;99.20;;;;;;5086813;28;20897;-72
2022/03/01 07:07:57;;;;;;;16.63;8.00;;;-0.40;99.20;;;;;;5097910;28;20204;-70
2022/03/01 07:10:23;;;;;;;18.33;8.93;;;-0.30;99.00;;;;;;5083348;28;20208;-72
2022/03/01 07:12:50;;;;;;;11.63;7.70;;;-0.20;98.70;;;;;;5084994;28;20278;-69
2022/03/01 07:15:16;;;;;;;10.53;7.53;;;-0.20;98.50;;;;;;5085165;28;20202;-70
2022/03/01 07:17:41;;;;;;;10.53;7.57;;;-0.20;98.40;;;;;;5087056;28;20404;-74
2022/03/01 07:20:08;;;;;;;12.83;7.30;;;-0.10;98.20;;;;;;5084681;28;20233;-75
2022/03/01 07:22:34;;;;;;;15.57;8.47;;;-0.10;98.10;;;;;;5085340;28;20191;-78
2022/03/01 07:24:59;;;;;;;12.37;7.27;;;0.00;98.10;;;;;;5083539;28;20214;-74
2022/03/01 07:27:25;;;;;;;14.47;7.33;;;0.00;97.70;;;;;;5085765;28;20214;-71
2022/03/01 07:29:51;;;;;;;13.30;6.90;;;0.10;97.60;;;;;;5083694;28;20653;-71
2022/03/01 07:32:16;;;;;;;15.17;7.43;;;0.10;97.50;;;;;;5086232;28;20609;-73
2022/03/01 07:34:42;;;;;;;11.87;7.20;;;0.20;97.40;;;;;;5085494;28;20536;-76
2022/03/01 07:37:08;;;;;;;8.50;6.53;;;0.20;97.50;;;;;;5087507;28;20271;-72
2022/03/01 07:39:34;;;;;;;9.73;7.03;;;0.30;97.10;;;;;;5086431;28;20253;-70
2022/03/01 07:41:59;;;;;;;11.30;7.83;;;0.40;96.70;;;;;;5085361;28;21516;-75
2022/03/01 07:44:25;;;;;;;9.03;6.93;;;0.50;96.60;;;;;;5082282;28;20191;-73
2022/03/01 07:46:50;;;;;;;13.30;6.83;;;0.50;96.50;;;;;;5084621;28;20681;-73
2022/03/01 07:49:16;;;;;;;15.00;7.90;;;0.60;96.40;;;;;;5086731;28;20215;-72
2022/03/01 07:51:41;;;;;;;11.30;6.83;;;0.60;96.40;;;;;;5085367;28;20210;-72
2022/03/01 07:54:07;;;;;;;9.43;7.20;;;0.60;95.70;;;;;;5087019;28;20205;-72
2022/03/01 07:56:33;;;;;;;13.63;7.07;;;0.70;95.70;;;;;;5084905;28;20288;-72
2022/03/01 07:58:58;;;;;;;15.57;7.37;;;0.80;95.60;;;;;;5089812;28;20220;-72
2022/03/01 08:01:24;;;;;;;11.97;7.03;;;0.90;95.40;;;;;;5089216;28;20575;-70
2022/03/01 08:03:50;;;;;;;10.40;7.10;;;1.00;95.70;;;;;;5089047;28;20192;-73
2022/03/01 08:06:16;;;;;;;10.63;7.33;;;1.10;94.90;;;;;;5091379;28;20653;-74
2022/03/01 08:08:43;;;;;;;11.97;7.43;;;1.10;94.60;;;;;;5097375;28;20242;-73
2022/03/01 08:11:08;;;;;;;9.83;6.20;;;1.10;94.60;;;;;;5098392;28;20209;-72
2022/03/01 08:13:35;;;;;;;7.93;6.30;;;1.20;94.60;;;;;;5095861;28;20199;-73
2022/03/01 08:16:02;;;;;;;12.47;7.17;;;1.20;94.10;;;;;;5093517;28;20632;-73
2022/03/01 08:18:28;;;;;;;13.63;7.50;;;1.30;94.10;;;;;;5098452;28;20568;-73
2022/03/01 08:20:54;;;;;;;13.83;6.57;;;1.40;93.90;;;;;;5089582;28;20222;-74
2022/03/01 08:23:19;;;;;;;10.53;6.70;;;1.50;93.80;;;;;;5093560;28;20209;-73
2022/03/01 08:25:45;;;;;;;9.93;6.60;;;1.60;93.10;;;;;;5087687;28;20271;-73
2022/03/01 08:28:12;;;;;;;10.60;6.97;;;1.50;93.00;;;;;;5094834;28;20222;-73
2022/03/01 08:30:38;;;;;;;12.93;7.03;;;1.50;93.00;;;;;;5095754;28;20201;-72
2022/03/01 08:33:04;;;;;;;9.67;6.77;;;1.60;92.80;;;;;;5094376;28;20198;-72
2022/03/01 08:35:32;;;;;;;8.80;6.53;;;1.70;92.70;;;;;;5100936;28;20196;-73
2022/03/01 08:38:02;;;;;;;10.77;7.37;;;1.70;92.10;;;;;;5105557;28;20701;-74
2022/03/01 08:40:29;;;;;;;10.53;6.37;;;1.70;92.40;;;;;;5096502;28;20213;-74
2022/03/01 08:42:55;;;;;;;12.40;7.57;;;1.90;92.00;;;;;;5094968;28;20609;-74
2022/03/01 08:45:20;;;;;;;8.73;5.97;;;1.90;91.80;;;;;;5105527;28;20195;-74
2022/03/01 08:47:45;;;;;;;10.83;7.47;;;2.00;92.00;;;;;;5094250;28;20265;-76
2022/03/01 08:50:11;;;;;;;11.17;7.20;;;2.00;91.70;;;;;;5097987;28;20185;-70
2022/03/01 08:52:39;;;;;;;11.97;7.17;;;2.10;91.70;;;;;;5098454;28;20687;-71
2022/03/01 08:55:06;;;;;;;9.60;6.40;;;2.20;91.50;;;;;;5098778;28;20185;-74
2022/03/01 08:57:31;;;;;;;12.33;6.87;;;2.30;91.10;;;;;;5095957;28;20245;-74
2022/03/01 08:59:57;;;;;;;10.93;7.57;;;2.40;90.80;;;;;;5099205;28;20641;-71
2022/03/01 09:02:22;;;;;;;9.40;6.53;;;2.40;90.50;;;;;;5099582;28;20191;-75
2022/03/01 09:04:48;;;;;;;9.70;6.83;;;2.40;90.70;;;;;;5088937;28;20165;-73
2022/03/01 09:07:13;;;;;;;9.23;6.30;;;2.50;90.50;;;;;;5091808;28;20212;-75
2022/03/01 09:09:39;;;;;;;10.80;5.70;;;2.50;90.50;;;;;;5098686;28;20220;-74
2022/03/01 09:12:05;;;;;;;10.07;6.63;;;2.60;90.10;;;;;;5098346;28;20205;-74
2022/03/01 09:14:30;;;;;;;9.67;6.00;;;2.60;89.80;;;;;;5088069;28;20242;-74
2022/03/01 09:16:56;;;;;;;14.77;7.33;;;2.60;88.50;;;;;;5093433;28;20192;-77
2022/03/01 09:19:21;;;;;;;9.27;6.53;;;2.70;88.30;;;;;;5095276;28;20230;-76
2022/03/01 09:21:47;;;;;;;11.63;6.77;;;2.80;87.10;;;;;;5096413;28;20304;-75
2022/03/01 09:24:12;;;;;;;12.67;7.03;;;2.80;85.20;;;;;;5089824;28;20207;-76
2022/03/01 09:26:38;;;;;;;10.60;7.50;;;2.80;86.30;;;;;;5095018;28;20192;-75
2022/03/01 09:29:04;;;;;;;8.77;6.07;;;2.90;85.80;;;;;;5088525;28;20288;-73
2022/03/01 09:31:30;;;;;;;10.70;5.87;;;3.00;84.10;;;;;;5094240;28;20195;-73
2022/03/01 09:33:55;;;;;;;10.17;6.30;;;3.00;84.30;;;;;;5091559;28;20197;-75
2022/03/01 09:36:21;;;;;;;7.63;6.10;;;3.00;85.20;;;;;;5096898;28;20181;-73
2022/03/01 09:38:46;;;;;;;10.07;6.77;;;3.10;83.40;;;;;;5090079;28;20211;-74
2022/03/01 09:41:13;;;;;;;10.23;7.03;;;3.20;82.50;;;;;;5096013;28;20195;-75
2022/03/01 09:43:40;;;;;;;7.93;6.30;;;3.30;82.40;;;;;;5087973;27;20231;-75
2022/03/01 09:46:07;;;;;;;9.10;7.00;;;3.30;82.80;;;;;;5106726;28;20188;-75
2022/03/01 09:48:32;;;;;;;10.23;7.27;;;3.40;82.90;;;;;;5093924;28;20215;-74
2022/03/01 09:51:00;;;;;;;8.27;5.77;;;3.50;81.20;;;;;;5093567;28;20185;-73
2022/03/01 09:53:26;;;;;;;8.90;6.80;;;3.50;79.00;;;;;;5086229;28;20202;-74
2022/03/01 09:55:53;;;;;;;7.53;5.83;;;3.50;77.90;;;;;;5100757;28;20189;-74
2022/03/01 09:58:18;;;;;;;8.83;6.70;;;3.60;79.20;;;;;;5097398;28;20197;-73
2022/03/01 10:00:45;;;;;;;9.63;6.37;;;3.60;78.30;;;;;;5103843;28;20245;-74
2022/03/01 10:03:15;;;;;;;15.43;6.03;;;3.70;78.50;;;;;;5101155;28;20310;-74
2022/03/01 10:05:42;;;;;;;9.43;6.43;;;3.60;77.10;;;;;;5091825;28;20281;-74
2022/03/01 10:08:16;;;;;;;9.80;7.23;;;3.70;78.10;;;;;;5089652;28;20221;-74
2022/03/01 10:10:45;;;;;;;9.40;6.53;;;3.80;77.10;;;;;;5090879;28;20745;-73
2022/03/01 10:13:21;;;;;;;10.50;6.40;;;3.80;76.40;;;;;;5091465;28;20203;-74
2022/03/01 10:15:49;;;;;;;10.90;5.60;;;3.80;76.90;;;;;;5094748;28;20188;-74
2022/03/01 10:18:16;;;;;;;8.43;5.80;;;3.90;75.00;;;;;;5096217;28;20664;-74
2022/03/01 10:20:51;;;;;;;7.40;6.30;;;4.00;75.20;;;;;;5092857;28;20289;-74
2022/03/01 10:23:22;;;;;;;9.10;6.40;;;4.10;75.40;;;;;;5095223;28;20212;-76
2022/03/01 10:25:48;;;;;;;7.50;5.27;;;4.10;74.30;;;;;;5083158;28;20232;-75
2022/03/01 10:28:13;;;;;;;14.23;6.83;;;4.30;75.20;;;;;;5097555;28;20718;-76
2022/03/01 10:30:39;;;;;;;9.43;6.53;;;4.30;73.50;;;;;;5089712;28;20196;-79
2022/03/01 10:33:13;;;;;;;10.73;6.67;;;4.20;73.80;;;;;;5092802;28;20544;-71
2022/03/01 10:35:41;;;;;;;11.97;6.47;;;4.40;75.40;;;;;;5098242;28;20208;-71
2022/03/01 10:38:08;;;;;;;8.73;5.63;;;4.50;73.10;;;;;;5101900;28;20191;-75
2022/03/01 10:40:35;;;;;;;6.70;5.87;;;4.60;71.30;;;;;;5094489;28;20216;-71
2022/03/01 10:43:09;;;;;;;8.83;6.20;;;4.70;73.00;;;;;;5086019;28;20641;-73
2022/03/01 10:45:45;;;;;;;7.87;5.87;;;4.70;71.90;;;;;;5089394;28;20234;-82
2022/03/01 10:48:23;;;;;;;8.30;6.17;;;5.00;71.50;;;;;;5098394;28;20227;-82
2022/03/01 10:51:08;;;;;;;10.40;6.63;;;5.40;70.80;;;;;;5103319;28;20715;-82
2022/03/01 10:53:42;;;;;;;8.80;6.83;;;5.70;69.90;;;;;;5082724;28;20573;-83
2022/03/01 10:56:13;;;;;;;8.97;6.80;;;5.80;68.20;;;;;;5093287;28;20199;-72
2022/03/01 10:58:40;;;;;;;7.60;5.47;;;5.90;68.20;;;;;;5091251;28;20960;-73
2022/03/01 11:01:09;;;;;;;10.87;5.97;;;6.00;67.60;;;;;;5087656;28;20190;-72
2022/03/01 11:03:34;;;;;;;10.90;6.23;;;6.20;66.20;;;;;;5094609;28;20837;-73
2022/03/01 11:06:02;;;;;;;6.97;5.00;;;6.40;64.60;;;;;;5099940;28;20193;-74
2022/03/01 11:08:32;;;;;;;8.57;5.97;;;6.60;65.30;;;;;;5088346;28;20362;-73
2022/03/01 11:11:00;;;;;;;10.07;5.90;;;6.80;63.60;;;;;;5085288;28;20282;-73
2022/03/01 11:13:26;;;;;;;8.47;5.90;;;7.00;61.80;;;;;;5091332;28;20727;-73
2022/03/01 11:16:30;;;;;;;5.37;4.40;;;7.00;61.40;;;;;;5084699;28;20197;-74
2022/03/01 11:19:14;;;;;;;6.77;5.20;;;7.20;60.20;;;;;;5091718;28;20735;-73
2022/03/01 11:21:43;;;;;;;7.17;4.60;;;7.30;58.10;;;;;;5099630;28;20203;-73
2022/03/01 11:24:11;;;;;;;7.40;5.40;;;7.40;58.00;;;;;;5092208;28;21016;-72
2022/03/01 11:26:38;;;;;;;6.03;4.77;;;7.40;56.80;;;;;;5084022;28;20243;-72
2022/03/01 11:29:09;;;;;;;8.00;5.40;;;7.60;57.20;;;;;;5100793;28;20200;-71
2022/03/01 11:31:35;;;;;;;8.13;5.47;;;7.70;57.10;;;;;;5095785;28;20204;-72
2022/03/01 11:34:07;;;;;;;7.00;5.10;;;7.60;56.60;;;;;;5095227;28;20191;-73
2022/03/01 11:36:33;;;;;;;10.87;6.13;;;7.90;57.50;;;;;;5085060;28;20702;-73
2022/03/01 11:39:11;;;;;;;7.00;4.97;;;8.50;55.40;;;;;;5091233;28;20220;-73
2022/03/01 11:41:45;;;;;;;8.53;5.23;;;8.50;55.70;;;;;;5089475;28;20200;-72
2022/03/01 11:44:11;;;;;;;11.73;4.93;;;8.80;55.30;;;;;;5097033;28;20207;-73
2022/03/01 11:46:42;;;;;;;4.77;4.17;;;8.80;53.90;;;;;;5090419;28;20200;-73
2022/03/01 11:49:09;;;;;;;6.33;5.33;;;9.00;53.80;;;;;;5100330;28;20191;-73
2022/03/01 11:51:39;;;;;;;7.53;4.97;;;9.00;52.20;;;;;;5087189;28;20201;-74
2022/03/01 11:54:10;;;;;;;7.07;4.90;;;9.20;52.60;;;;;;5065189;28;20257;-74
2022/03/01 11:56:38;;;;;;;6.33;5.53;;;9.80;52.60;;;;;;5081080;28;20258;-72
2022/03/01 11:59:09;;;;;;;6.37;5.53;;;10.10;51.10;;;;;;5102154;28;20939;-73
2022/03/01 12:01:36;;;;;;;6.83;5.40;;;9.80;50.10;;;;;;5089912;28;20209;-72
2022/03/01 12:04:04;;;;;;;6.53;5.23;;;9.70;49.30;;;;;;5097636;28;20193;-72
2022/03/01 12:06:31;;;;;;;6.63;5.80;;;10.00;50.00;;;;;;5090701;28;20227;-72
2022/03/01 12:08:58;;;;;;;7.10;4.93;;;10.10;49.00;;;;;;5098328;28;20200;-73
2022/03/01 12:11:34;;;;;;;6.57;5.40;;;10.10;47.70;;;;;;5089861;28;20198;-73
2022/03/01 12:14:05;;;;;;;7.53;5.00;;;10.00;47.90;;;;;;5078578;28;20184;-73
2022/03/01 12:16:31;;;;;;;9.73;5.20;;;10.30;48.20;;;;;;5083700;28;20457;-73
2022/03/01 12:19:22;;;;;;;8.70;4.53;;;10.70;46.90;;;;;;5093182;28;20358;-74
2022/03/01 12:21:51;;;;;;;8.40;5.60;;;10.40;47.20;;;;;;5090080;28;20208;-75
2022/03/01 12:24:18;;;;;;;7.67;5.30;;;10.50;46.50;;;;;;5101040;28;20214;-74
2022/03/01 12:26:51;;;;;;;9.20;5.33;;;10.90;46.70;;;;;;5098660;28;20209;-74
2022/03/01 12:29:23;;;;;;;7.47;5.10;;;11.40;45.70;;;;;;5098830;28;20292;-73
2022/03/01 12:32:05;;;;;;;7.70;5.00;;;11.90;44.80;;;;;;5087989;28;20266;-73
2022/03/01 12:34:34;;;;;;;7.60;4.97;;;12.10;45.20;;;;;;5066444;28;20217;-71
2022/03/01 12:37:03;;;;;;;6.40;5.13;;;11.90;44.30;;;;;;5100291;28;20536;-73
2022/03/01 12:39:28;;;;;;;5.80;4.90;;;11.90;43.40;;;;;;5094478;28;20736;-74
2022/03/01 12:41:55;;;;;;;6.13;4.73;;;12.00;43.00;;;;;;5088512;28;20201;-74
2022/03/01 12:44:30;;;;;;;5.90;4.83;;;12.10;42.80;;;;;;5106113;28;20392;-73
2022/03/01 12:46:57;;;;;;;6.23;4.37;;;11.80;42.00;;;;;;5097562;28;20216;-74